createdAt,value
2018-06-01T00:01:35.632Z,20.70
2018-06-01T00:04:03.406Z,20.70
2018-06-01T00:06:31.180Z,20.60
2018-06-01T00:08:58.947Z,20.50
2018-06-01T00:11:26.727Z,20.50
2018-06-01T00:13:54.498Z,20.50
2018-06-01T00:16:22.304Z,20.50
2018-06-01T00:18:49.304Z,20.50
2018-06-01T00:21:16.332Z,20.50
2018-06-01T00:23:43.388Z,20.50
2018-06-01T00:26:10.422Z,20.50
2018-06-01T00:28:38.217Z,20.50
2018-06-01T00:31:05.214Z,20.40
2018-06-01T00:33:32.238Z,20.40
2018-06-01T00:35:59.266Z,20.40
2018-06-01T00:38:27.065Z,20.30
2018-06-01T00:40:54.067Z,20.30
2018-06-01T00:43:21.081Z,20.30
2018-06-01T00:45:48.098Z,20.20
2018-06-01T00:48:15.130Z,20.20
2018-06-01T00:50:42.124Z,20.20
2018-06-01T00:53:09.168Z,20.20
2018-06-01T00:55:36.180Z,20.20
2018-06-01T00:58:03.198Z,20.20
2018-06-01T01:00:30.210Z,20.20
2018-06-01T01:02:57.229Z,20.10
2018-06-01T01:05:25.021Z,20.10
2018-06-01T01:07:52.036Z,20.10
2018-06-01T01:10:19.058Z,20.10
2018-06-01T01:12:46.109Z,20.00
2018-06-01T01:15:13.123Z,20.10
2018-06-01T01:17:40.153Z,20.00
2018-06-01T01:20:07.176Z,20.00
2018-06-01T01:22:34.968Z,20.00
2018-06-01T01:25:01.976Z,19.90
2018-06-01T01:27:29.034Z,20.00
2018-06-01T01:29:56.039Z,20.00
2018-06-01T01:32:23.050Z,19.90
2018-06-01T01:34:50.058Z,20.00
2018-06-01T01:37:22.898Z,19.90
2018-06-01T01:39:49.909Z,19.90
2018-06-01T01:42:16.911Z,19.90
2018-06-01T01:44:43.940Z,19.90
2018-06-01T01:47:10.954Z,19.90
2018-06-01T01:49:38.001Z,19.90
2018-06-01T01:52:05.006Z,19.90
2018-06-01T01:54:32.020Z,19.90
2018-06-01T01:56:59.042Z,19.90
2018-06-01T01:59:26.062Z,19.90
2018-06-01T02:01:53.855Z,19.80
2018-06-01T02:04:20.877Z,19.80
2018-06-01T02:06:47.871Z,19.80
2018-06-01T02:09:14.935Z,19.80
2018-06-01T02:11:41.946Z,19.80
2018-06-01T02:14:08.974Z,19.80
2018-06-01T02:16:35.979Z,19.80
2018-06-01T02:19:02.988Z,19.70
2018-06-01T02:21:30.002Z,19.70
2018-06-01T02:23:57.023Z,19.70
2018-06-01T02:26:24.074Z,19.70
2018-06-01T02:28:51.097Z,19.70
2018-06-01T02:31:18.897Z,19.60
2018-06-01T02:33:45.925Z,19.60
2018-06-01T02:36:13.706Z,19.60
2018-06-01T02:38:41.490Z,19.50
2018-06-01T02:41:09.264Z,19.50
2018-06-01T02:43:37.035Z,19.40
2018-06-01T02:46:04.818Z,19.40
2018-06-01T02:48:32.590Z,19.40
2018-06-01T02:51:00.370Z,19.30
2018-06-01T02:53:28.174Z,19.30
2018-06-01T02:55:55.195Z,19.30
2018-06-01T02:58:22.992Z,19.30
2018-06-01T03:00:50.791Z,19.20
2018-06-01T03:03:17.812Z,19.20
2018-06-01T03:05:44.807Z,19.20
2018-06-01T03:08:11.854Z,19.20
2018-06-01T03:10:38.856Z,19.10
2018-06-01T03:13:05.860Z,19.10
2018-06-01T03:15:32.864Z,19.10
2018-06-01T03:17:59.859Z,19.10
2018-06-01T03:20:27.638Z,19.10
2018-06-01T03:22:55.882Z,19.20
2018-06-01T03:25:22.893Z,19.10
2018-06-01T03:27:50.659Z,19.20
2018-06-01T03:30:18.487Z,19.20
2018-06-01T03:32:45.541Z,19.20
2018-06-01T03:35:12.558Z,19.20
2018-06-01T03:37:40.333Z,19.20
2018-06-01T03:40:08.122Z,19.20
2018-06-01T03:42:35.948Z,19.30
2018-06-01T03:45:02.955Z,19.30
2018-06-01T03:47:30.735Z,19.30
2018-06-01T03:49:58.517Z,19.40
2018-06-01T03:52:26.300Z,19.40
2018-06-01T03:54:53.315Z,19.40
2018-06-01T03:57:20.345Z,19.40
2018-06-01T03:59:47.362Z,19.50
2018-06-01T04:02:15.131Z,19.60
2018-06-01T04:04:42.921Z,19.60
2018-06-01T04:07:10.709Z,19.70
2018-06-01T04:09:37.715Z,19.70
2018-06-01T04:12:04.711Z,19.70
2018-06-01T04:14:32.510Z,19.90
2018-06-01T04:16:59.510Z,19.90
2018-06-01T04:19:26.519Z,19.90
2018-06-01T04:21:53.521Z,20.00
2018-06-01T04:24:20.541Z,20.10
2018-06-01T04:26:47.551Z,20.10
2018-06-01T04:29:14.568Z,20.20
2018-06-01T04:31:41.582Z,20.20
2018-06-01T04:34:08.588Z,20.30
2018-06-01T04:36:35.621Z,20.40
2018-06-01T04:39:03.418Z,20.50
2018-06-01T04:41:30.437Z,20.50
2018-06-01T04:43:57.451Z,20.60
2018-06-01T04:46:24.475Z,20.50
2018-06-01T04:48:52.236Z,20.60
2018-06-01T04:51:20.026Z,20.60
2018-06-01T04:53:47.802Z,20.70
2018-06-01T04:56:15.669Z,20.80
2018-06-01T04:58:43.434Z,20.90
2018-06-01T05:01:10.443Z,20.90
2018-06-01T05:03:37.452Z,21.00
2018-06-01T05:06:04.459Z,20.90
2018-06-01T05:08:31.472Z,20.90
2018-06-01T05:10:58.494Z,20.90
2018-06-01T05:13:25.496Z,20.80
2018-06-01T05:15:52.502Z,20.80
2018-06-01T05:18:19.509Z,20.80
2018-06-01T05:20:46.507Z,20.90
2018-06-01T05:23:13.519Z,20.90
2018-06-01T05:25:40.550Z,21.00
2018-06-01T05:28:07.571Z,21.00
2018-06-01T05:30:34.587Z,21.10
2018-06-01T05:33:01.587Z,21.10
2018-06-01T05:35:29.476Z,21.00
2018-06-01T05:37:56.496Z,20.90
2018-06-01T05:40:23.526Z,20.90
2018-06-01T05:42:50.539Z,20.90
2018-06-01T05:45:18.318Z,21.00
2018-06-01T05:47:46.096Z,21.10
2018-06-01T05:50:13.096Z,21.00
2018-06-01T05:52:40.106Z,21.10
2018-06-01T05:55:07.872Z,21.20
2018-06-01T05:57:34.889Z,21.20
2018-06-01T06:00:01.938Z,21.40
2018-06-01T06:02:28.972Z,21.50
2018-06-01T06:04:56.735Z,21.90
2018-06-01T06:07:23.762Z,21.90
2018-06-01T06:09:50.814Z,22.10
2018-06-01T06:12:17.834Z,22.20
2018-06-01T06:14:45.621Z,22.40
2018-06-01T06:17:13.394Z,22.50
2018-06-01T06:19:40.510Z,22.50
2018-06-01T06:22:07.515Z,22.60
2018-06-01T06:24:34.536Z,22.50
2018-06-01T06:27:01.552Z,22.50
2018-06-01T06:29:28.562Z,22.40
2018-06-01T06:31:55.574Z,22.20
2018-06-01T06:34:22.591Z,22.20
2018-06-01T06:36:50.366Z,22.20
2018-06-01T06:39:18.150Z,22.10
2018-06-01T06:41:45.928Z,22.10
2018-06-01T06:44:13.724Z,22.00
2018-06-01T06:46:40.723Z,22.00
2018-06-01T06:49:07.809Z,22.00
2018-06-01T06:51:35.607Z,22.10
2018-06-01T06:54:03.378Z,22.30
2018-06-01T06:56:31.188Z,22.50
2018-06-01T06:58:58.204Z,22.40
2018-06-01T07:01:25.226Z,22.60
2018-06-01T07:03:52.223Z,22.60
2018-06-01T07:06:20.018Z,22.60
2018-06-01T07:08:47.788Z,22.50
2018-06-01T07:11:15.561Z,22.40
2018-06-01T07:13:43.362Z,22.40
2018-06-01T07:16:10.389Z,22.40
2018-06-01T07:18:37.385Z,22.40
2018-06-01T07:21:04.414Z,22.50
2018-06-01T07:23:32.194Z,22.70
2018-06-01T07:25:59.990Z,22.70
2018-06-01T07:28:26.993Z,22.70
2018-06-01T07:30:54.014Z,22.70
2018-06-01T07:33:21.097Z,22.70
2018-06-01T07:35:48.834Z,22.70
2018-06-01T07:38:16.608Z,22.70
2018-06-01T07:40:44.395Z,22.60
2018-06-01T07:43:11.439Z,22.60
2018-06-01T07:45:39.298Z,22.70
2018-06-01T07:48:06.294Z,22.70
2018-06-01T07:50:33.307Z,22.70
2018-06-01T07:53:00.367Z,22.70
2018-06-01T07:55:27.449Z,22.70
2018-06-01T07:57:54.477Z,22.50
2018-06-01T08:00:21.467Z,22.40
2018-06-01T08:02:49.262Z,21.90
2018-06-01T08:05:17.031Z,21.80
2018-06-01T08:07:44.829Z,21.70
2018-06-01T08:10:11.841Z,21.60
2018-06-01T08:12:38.855Z,21.60
2018-06-01T08:15:05.870Z,21.60
2018-06-01T08:17:32.906Z,21.60
2018-06-01T08:19:59.924Z,21.60
2018-06-01T08:22:26.923Z,21.60
2018-06-01T08:24:53.946Z,21.50
2018-06-01T08:27:20.969Z,21.50
2018-06-01T08:29:47.985Z,21.50
2018-06-01T08:32:15.085Z,21.50
2018-06-01T08:34:42.084Z,21.50
2018-06-01T08:37:09.097Z,21.50
2018-06-01T08:39:36.120Z,21.50
2018-06-01T08:42:03.136Z,21.50
2018-06-01T08:44:30.918Z,21.60
2018-06-01T08:46:58.763Z,21.50
2018-06-01T08:49:25.845Z,21.40
2018-06-01T08:51:53.609Z,21.30
2018-06-01T08:54:22.191Z,21.10
2018-06-01T08:56:49.226Z,21.10
2018-06-01T08:59:16.353Z,21.00
2018-06-01T09:01:44.171Z,20.80
2018-06-01T09:04:11.931Z,20.80
2018-06-01T09:06:38.971Z,20.80
2018-06-01T09:09:06.001Z,20.80
2018-06-01T09:11:33.013Z,20.80
2018-06-01T09:14:00.027Z,20.70
2018-06-01T09:16:27.894Z,20.60
2018-06-01T09:18:54.910Z,20.60
2018-06-01T09:21:21.927Z,20.70
2018-06-01T09:23:49.707Z,20.70
2018-06-01T09:26:17.488Z,20.80
2018-06-01T09:28:45.258Z,20.80
2018-06-01T09:31:13.032Z,20.80
2018-06-01T09:33:40.906Z,20.80
2018-06-01T09:36:08.703Z,20.70
2018-06-01T09:38:36.490Z,20.60
2018-06-01T09:41:03.518Z,20.70
2018-06-01T09:43:30.539Z,20.60
2018-06-01T09:45:57.556Z,20.60
2018-06-01T09:48:25.345Z,20.60
2018-06-01T09:50:52.347Z,20.60
2018-06-01T09:53:19.362Z,20.70
2018-06-01T09:55:46.397Z,20.80
2018-06-01T09:58:14.167Z,21.00
2018-06-01T10:00:46.913Z,20.90
2018-06-01T10:03:14.023Z,21.00
2018-06-01T10:05:41.812Z,21.20
2018-06-01T10:08:09.597Z,21.30
2018-06-01T10:10:36.636Z,21.30
2018-06-01T10:13:03.726Z,21.40
2018-06-01T10:15:30.769Z,21.50
2018-06-01T10:17:57.743Z,21.60
2018-06-01T10:20:24.739Z,21.80
2018-06-01T10:22:51.782Z,22.00
2018-06-01T10:25:18.785Z,22.20
2018-06-01T10:27:47.291Z,22.70
2018-06-01T10:30:15.077Z,23.00
2018-06-01T10:32:42.889Z,23.30
2018-06-01T10:35:09.892Z,23.30
2018-06-01T10:37:36.918Z,23.50
2018-06-01T10:40:03.942Z,23.90
2018-06-01T10:42:30.963Z,24.40
2018-06-01T10:44:57.976Z,24.90
2018-06-01T10:47:24.983Z,25.20
2018-06-01T10:49:51.984Z,25.70
2018-06-01T10:52:19.026Z,26.10
2018-06-01T10:54:46.796Z,26.70
2018-06-01T10:57:14.656Z,26.80
2018-06-01T10:59:41.735Z,26.80
2018-06-01T11:02:08.757Z,26.70
2018-06-01T11:04:35.765Z,26.60
2018-06-01T11:07:03.531Z,26.50
2018-06-01T11:09:31.318Z,26.30
2018-06-01T11:11:59.083Z,26.30
2018-06-01T11:14:26.921Z,26.30
2018-06-01T11:16:54.689Z,26.50
2018-06-01T11:19:21.707Z,26.40
2018-06-01T11:21:49.479Z,27.10
2018-06-01T11:24:17.303Z,27.30
2018-06-01T11:26:44.419Z,27.30
2018-06-01T11:29:12.219Z,28.10
2018-06-01T11:31:39.501Z,28.00
2018-06-01T11:34:06.515Z,28.70
2018-06-01T11:36:33.542Z,29.60
2018-06-01T11:39:00.555Z,30.50
2018-06-01T11:41:27.586Z,30.70
2018-06-01T11:43:54.635Z,31.20
2018-06-01T11:46:21.644Z,32.30
2018-06-01T11:48:48.645Z,33.10
2018-06-01T11:51:15.653Z,34.30
2018-06-01T11:53:42.655Z,35.00
2018-06-01T11:56:09.674Z,34.70
2018-06-01T11:58:36.690Z,35.10
2018-06-01T12:01:03.790Z,36.10
2018-06-01T12:03:31.559Z,36.50
2018-06-01T12:05:59.323Z,36.80
2018-06-01T12:08:27.121Z,37.00
2018-06-01T12:10:54.144Z,36.90
2018-06-01T12:13:21.150Z,36.60
2018-06-01T12:15:48.178Z,36.10
2018-06-01T12:18:15.976Z,35.60
2018-06-01T12:20:43.006Z,35.60
2018-06-01T12:23:10.050Z,35.40
2018-06-01T12:25:37.048Z,34.90
2018-06-01T12:28:04.067Z,33.60
2018-06-01T12:30:31.070Z,32.60
2018-06-01T12:32:58.090Z,31.40
2018-06-01T12:35:25.099Z,30.90
2018-06-01T12:37:52.221Z,30.60
2018-06-01T12:40:19.246Z,30.90
2018-06-01T12:42:46.324Z,31.40
2018-06-01T12:45:13.354Z,32.60
2018-06-01T12:47:40.355Z,34.00
2018-06-01T12:50:07.418Z,35.00
2018-06-01T12:52:35.223Z,36.30
2018-06-01T12:55:02.231Z,36.20
2018-06-01T12:57:29.347Z,36.80
2018-06-01T12:59:56.358Z,37.20
2018-06-01T13:02:23.390Z,37.80
2018-06-01T13:04:50.406Z,38.50
2018-06-01T13:07:18.201Z,38.70
2018-06-01T13:09:45.203Z,38.70
2018-06-01T13:12:12.206Z,38.20
2018-06-01T13:14:39.993Z,37.20
2018-06-01T13:17:07.014Z,37.20
2018-06-01T13:19:34.040Z,35.70
2018-06-01T13:22:01.040Z,34.70
2018-06-01T13:24:28.815Z,33.80
2018-06-01T13:26:55.846Z,33.80
2018-06-01T13:29:22.873Z,33.30
2018-06-01T13:31:49.890Z,33.80
2018-06-01T13:34:16.938Z,35.10
2018-06-01T13:36:43.959Z,35.90
2018-06-01T13:39:10.970Z,36.80
2018-06-01T13:41:38.002Z,36.90
2018-06-01T13:44:04.999Z,36.80
2018-06-01T13:46:32.774Z,37.00
2018-06-01T13:49:00.648Z,35.80
2018-06-01T13:51:28.520Z,34.60
2018-06-01T13:53:55.528Z,34.60
2018-06-01T13:56:22.544Z,33.70
2018-06-01T13:58:50.314Z,32.30
2018-06-01T14:01:17.355Z,32.30
2018-06-01T14:03:44.437Z,31.70
2018-06-01T14:06:11.495Z,31.10
2018-06-01T14:08:38.535Z,30.60
2018-06-01T14:11:05.539Z,29.90
2018-06-01T14:13:32.556Z,29.40
2018-06-01T14:15:59.564Z,29.10
2018-06-01T14:18:26.590Z,28.70
2018-06-01T14:20:53.605Z,28.50
2018-06-01T14:23:20.624Z,28.30
2018-06-01T14:25:48.496Z,27.70
2018-06-01T14:28:16.263Z,27.50
2018-06-01T14:30:43.306Z,27.50
2018-06-01T14:33:10.335Z,27.40
2018-06-01T14:35:37.352Z,27.30
2018-06-01T14:38:05.139Z,27.20
2018-06-01T14:40:32.974Z,27.10
2018-06-01T14:43:00.706Z,27.00
2018-06-01T14:45:27.708Z,27.00
2018-06-01T14:47:54.779Z,26.90
2018-06-01T14:50:21.799Z,26.70
2018-06-01T14:52:48.812Z,26.60
2018-06-01T14:55:16.609Z,26.40
2018-06-01T14:57:43.648Z,26.40
2018-06-01T15:00:10.661Z,26.50
2018-06-01T15:02:37.756Z,26.50
2018-06-01T15:05:04.821Z,26.50
2018-06-01T15:07:31.876Z,26.60
2018-06-01T15:09:58.954Z,26.70
2018-06-01T15:12:26.722Z,27.50
2018-06-01T15:14:53.737Z,27.50
2018-06-01T15:17:20.740Z,28.10
2018-06-01T15:19:47.760Z,28.70
2018-06-01T15:22:14.839Z,29.30
2018-06-01T15:24:41.919Z,29.90
2018-06-01T15:27:08.920Z,30.40
2018-06-01T15:29:35.927Z,30.80
2018-06-01T15:32:02.950Z,31.50
2018-06-01T15:34:30.084Z,32.10
2018-06-01T15:36:57.126Z,32.40
2018-06-01T15:39:24.893Z,32.50
2018-06-01T15:41:52.775Z,32.30
2018-06-01T15:44:20.555Z,31.70
2018-06-01T15:46:48.391Z,31.00
2018-06-01T15:49:15.391Z,31.00
2018-06-01T15:51:43.163Z,30.10
2018-06-01T15:54:10.182Z,30.10
2018-06-01T15:56:37.207Z,29.70
2018-06-01T15:59:04.252Z,29.40
2018-06-01T16:01:32.033Z,29.20
2018-06-01T16:03:59.826Z,29.20
2018-06-01T16:06:26.840Z,29.20
2018-06-01T16:08:53.850Z,29.30
2018-06-01T16:11:20.870Z,29.40
2018-06-01T16:13:47.933Z,29.60
2018-06-01T16:16:15.796Z,29.50
2018-06-01T16:18:42.798Z,29.40
2018-06-01T16:21:09.808Z,29.40
2018-06-01T16:23:36.822Z,29.30
2018-06-01T16:26:03.942Z,29.10
2018-06-01T16:28:30.992Z,29.10
2018-06-01T16:30:59.594Z,28.90
2018-06-01T16:33:26.645Z,28.90
2018-06-01T16:35:53.707Z,28.70
2018-06-01T16:38:20.730Z,28.50
2018-06-01T16:40:47.760Z,28.30
2018-06-01T16:43:14.773Z,28.10
2018-06-01T16:45:42.548Z,27.50
2018-06-01T16:48:09.586Z,27.40
2018-06-01T16:50:36.612Z,27.30
2018-06-01T16:53:03.681Z,27.20
2018-06-01T16:55:31.442Z,26.80
2018-06-01T16:57:59.208Z,26.50
2018-06-01T17:00:26.983Z,26.20
2018-06-01T17:02:54.046Z,26.10
2018-06-01T17:05:21.055Z,26.00
2018-06-01T17:07:48.161Z,25.60
2018-06-01T17:10:15.175Z,25.00
2018-06-01T17:12:42.181Z,24.50
2018-06-01T17:15:09.206Z,24.30
2018-06-01T17:17:36.210Z,24.00
2018-06-01T17:20:03.997Z,23.40
2018-06-01T17:22:31.800Z,23.20
2018-06-01T17:24:58.819Z,23.20
2018-06-01T17:27:26.686Z,22.80
2018-06-01T17:29:53.754Z,22.70
2018-06-01T17:32:21.537Z,22.40
2018-06-01T17:34:49.327Z,22.10
2018-06-01T17:37:17.095Z,22.00
2018-06-01T17:39:44.894Z,21.90
2018-06-01T17:42:11.914Z,21.90
2018-06-01T17:44:39.699Z,21.80
2018-06-01T17:47:07.477Z,21.80
2018-06-01T17:49:35.269Z,21.70
2018-06-01T17:52:03.118Z,21.60
2018-06-01T17:54:30.150Z,21.60
2018-06-01T17:56:57.161Z,21.40
2018-06-01T17:59:24.935Z,21.30
2018-06-01T18:01:52.723Z,21.30
2018-06-01T18:04:20.558Z,21.40
2018-06-01T18:06:47.653Z,21.40
2018-06-01T18:09:15.403Z,21.70
2018-06-01T18:11:42.425Z,21.60
2018-06-01T18:14:13.329Z,21.70
2018-06-01T18:16:40.341Z,21.80
2018-06-01T18:19:07.357Z,22.00
2018-06-01T18:21:35.199Z,22.20
2018-06-01T18:24:02.209Z,22.20
2018-06-01T18:26:29.220Z,22.30
2018-06-01T18:28:56.875Z,22.40
2018-06-01T18:31:23.988Z,22.40
2018-06-01T18:33:51.768Z,22.60
2018-06-01T18:36:18.776Z,22.50
2018-06-01T18:38:45.806Z,22.50
2018-06-01T18:41:12.811Z,22.40
2018-06-01T18:43:39.875Z,22.20
2018-06-01T18:46:06.938Z,22.10
2018-06-01T18:48:33.952Z,21.90
2018-06-01T18:51:00.979Z,21.80
2018-06-01T18:53:28.774Z,21.70
2018-06-01T18:55:55.775Z,21.70
2018-06-01T18:58:22.858Z,21.60
2018-06-01T19:00:49.894Z,21.70
2018-06-01T19:03:16.932Z,21.80
2018-06-01T19:05:43.983Z,21.80
2018-06-01T19:08:11.041Z,21.80
2018-06-01T19:10:38.811Z,21.70
2018-06-01T19:13:05.829Z,21.70
2018-06-01T19:15:32.901Z,21.60
2018-06-01T19:18:00.759Z,21.40
2018-06-01T19:20:27.815Z,21.40
2018-06-01T19:22:54.835Z,21.30
2018-06-01T19:25:21.851Z,21.20
2018-06-01T19:27:49.638Z,21.00
2018-06-01T19:30:17.446Z,21.00
2018-06-01T19:32:44.570Z,21.00
2018-06-01T19:35:12.343Z,20.90
2018-06-01T19:37:40.207Z,20.80
2018-06-01T19:40:07.288Z,20.80
2018-06-01T19:42:34.243Z,20.90
2018-06-01T19:45:02.103Z,20.80
2018-06-01T19:47:29.126Z,20.80
2018-06-01T19:49:56.132Z,20.70
2018-06-01T19:52:23.147Z,20.70
2018-06-01T19:54:50.168Z,20.70
2018-06-01T19:57:17.943Z,20.60
2018-06-01T19:59:45.734Z,20.70
2018-06-01T20:02:12.806Z,20.60
2018-06-01T20:04:39.837Z,20.60
2018-06-01T20:07:07.708Z,20.50
2018-06-01T20:09:35.528Z,20.40
2018-06-01T20:12:02.550Z,20.40
2018-06-01T20:14:29.566Z,20.40
2018-06-01T20:16:56.584Z,20.40
2018-06-01T20:19:24.420Z,20.30
2018-06-01T20:21:51.503Z,20.30
2018-06-01T20:24:18.511Z,20.30
2018-06-01T20:26:45.608Z,20.30
2018-06-01T20:29:12.729Z,20.20
2018-06-01T20:31:39.754Z,20.30
2018-06-01T20:34:07.543Z,20.20
2018-06-01T20:36:35.459Z,20.30
2018-06-01T20:39:02.493Z,20.20
2018-06-01T20:41:29.503Z,20.30
2018-06-01T20:43:56.530Z,20.30
2018-06-01T20:46:23.531Z,20.20
2018-06-01T20:48:50.574Z,20.20
2018-06-01T20:51:17.580Z,20.20
2018-06-01T20:53:44.602Z,20.20
2018-06-01T20:56:11.609Z,20.20
2018-06-01T20:58:38.613Z,20.20
2018-06-01T21:01:05.624Z,20.20
2018-06-01T21:03:32.648Z,20.00
2018-06-01T21:05:59.689Z,20.00
2018-06-01T21:08:26.763Z,20.00
2018-06-01T21:10:53.764Z,20.00
2018-06-01T21:13:20.814Z,20.00
2018-06-01T21:15:47.831Z,19.90
2018-06-01T21:18:14.839Z,19.90
2018-06-01T21:20:41.883Z,19.90
2018-06-01T21:23:08.896Z,19.90
2018-06-01T21:25:35.918Z,19.90
2018-06-01T21:28:02.942Z,19.90
2018-06-01T21:30:30.732Z,19.90
2018-06-01T21:32:58.503Z,19.90
2018-06-01T21:35:26.284Z,19.80
2018-06-01T21:37:54.155Z,19.80
2018-06-01T21:40:21.947Z,19.80
2018-06-01T21:42:49.704Z,19.80
2018-06-01T21:45:17.496Z,19.80
2018-06-01T21:47:45.267Z,19.70
2018-06-01T21:50:13.068Z,19.80
2018-06-01T21:52:40.090Z,19.70
2018-06-01T21:55:07.102Z,19.80
2018-06-01T21:57:34.220Z,19.90
2018-06-01T22:00:02.090Z,19.90
2018-06-01T22:02:29.104Z,19.90
2018-06-01T22:04:56.108Z,19.90
2018-06-01T22:07:23.164Z,20.00
2018-06-01T22:09:50.168Z,19.90
2018-06-01T22:12:17.176Z,19.80
2018-06-01T22:14:44.201Z,19.70
2018-06-01T22:17:11.235Z,19.70
2018-06-01T22:19:38.255Z,19.50
2018-06-01T22:22:05.268Z,19.40
2018-06-01T22:24:32.295Z,19.30
2018-06-01T22:27:00.086Z,19.30
2018-06-01T22:29:27.097Z,19.30
2018-06-01T22:31:54.128Z,19.40
2018-06-01T22:34:21.215Z,19.30
2018-06-01T22:36:48.278Z,19.40
2018-06-01T22:39:15.298Z,19.40
2018-06-01T22:41:42.410Z,19.40
2018-06-01T22:44:09.442Z,19.30
2018-06-01T22:46:36.439Z,19.30
2018-06-01T22:49:04.226Z,19.20
2018-06-01T22:51:32.002Z,19.20
2018-06-01T22:53:59.793Z,19.20
2018-06-01T22:56:26.811Z,19.20
2018-06-01T22:58:53.827Z,19.20
2018-06-01T23:01:20.850Z,19.10
2018-06-01T23:03:49.104Z,19.00
2018-06-01T23:06:16.114Z,19.00
2018-06-01T23:08:43.124Z,18.90
2018-06-01T23:11:10.174Z,18.80
2018-06-01T23:13:37.248Z,18.80
2018-06-01T23:16:04.327Z,18.80
2018-06-01T23:18:31.374Z,18.80
2018-06-01T23:20:58.415Z,18.80
2018-06-01T23:23:25.514Z,18.70
2018-06-01T23:25:53.305Z,18.70
2018-06-01T23:28:21.148Z,18.70
2018-06-01T23:30:48.152Z,18.70
2018-06-01T23:33:15.282Z,18.60
2018-06-01T23:35:43.071Z,18.50
2018-06-01T23:38:10.852Z,18.40
2018-06-01T23:40:38.630Z,18.50
2018-06-01T23:43:06.423Z,18.40
2018-06-01T23:45:33.427Z,18.40
2018-06-01T23:48:00.438Z,18.50
2018-06-01T23:50:27.467Z,18.50
2018-06-01T23:52:54.495Z,18.40
2018-06-01T23:55:21.573Z,18.40
2018-06-01T23:57:48.598Z,18.30
